Time;durP1;ratioP1;P1;durP2;ratioP2;P2;SDS_P1;SDS_P2;PMS_P1;PMS_P2;Temp;Humidity;BMP_temperature;BMP_pressure;BME280_temperature;BME280_humidity;BME280_pressure;Samples;Min_cycle;Max_cycle;Signal;HPM_P1;HPM_P2
2022/06/11 00:00:59;;;;;;;1.37;1.20;;;23.40;83.30;;;;;;5094571;28;20372;-5
2022/06/11 00:03:26;;;;;;;3.43;1.40;;;23.40;83.30;;;;;;5075984;28;20179;-5
2022/06/11 00:05:51;;;;;;;1.60;1.27;;;23.40;83.40;;;;;;5094551;28;20159;-6
2022/06/11 00:08:18;;;;;;;1.77;1.30;;;23.40;83.40;;;;;;5077190;28;20178;-6
2022/06/11 00:10:45;;;;;;;2.30;1.20;;;23.40;83.40;;;;;;5093965;28;20253;-6
2022/06/11 00:13:12;;;;;;;2.60;1.40;;;23.30;83.40;;;;;;5094886;28;20181;-6
2022/06/11 00:15:37;;;;;;;1.63;1.30;;;23.40;83.50;;;;;;5093915;28;20167;-5
2022/06/11 00:18:04;;;;;;;1.80;1.20;;;23.30;83.40;;;;;;5093311;28;20495;-5
2022/06/11 00:20:31;;;;;;;3.17;1.30;;;23.30;83.40;;;;;;5077053;28;20187;-5
2022/06/11 00:22:57;;;;;;;1.10;1.03;;;23.30;83.40;;;;;;5093666;28;20179;-5
2022/06/11 00:25:24;;;;;;;1.20;1.10;;;23.40;83.40;;;;;;5076976;28;20167;-6
2022/06/11 00:27:49;;;;;;;1.57;1.30;;;23.30;83.40;;;;;;5093991;28;20174;-5
2022/06/11 00:30:18;;;;;;;1.80;1.40;;;23.30;83.40;;;;;;5094106;28;20182;-5
2022/06/11 00:32:45;;;;;;;1.60;1.40;;;23.30;83.40;;;;;;5076653;28;20198;-6
2022/06/11 00:35:12;;;;;;;1.73;1.33;;;23.30;83.40;;;;;;5075942;28;20302;-6
2022/06/11 00:37:38;;;;;;;1.57;1.40;;;23.30;83.40;;;;;;5093063;28;20215;-9
2022/06/11 00:40:05;;;;;;;1.97;1.27;;;23.30;83.40;;;;;;5094173;28;20163;-6
2022/06/11 00:42:33;;;;;;;2.17;1.40;;;23.30;83.50;;;;;;5075948;28;20223;-6
2022/06/11 00:45:17;;;;;;;1.90;1.20;;;23.30;83.50;;;;;;5076318;28;20544;-6
2022/06/11 00:47:45;;;;;;;1.13;1.00;;;23.30;83.50;;;;;;5094044;28;20234;-7
2022/06/11 00:50:17;;;;;;;1.80;1.10;;;23.30;83.50;;;;;;5093985;28;20171;-5
2022/06/11 00:52:45;;;;;;;1.20;1.10;;;23.30;83.50;;;;;;5077560;28;20444;-6
2022/06/11 00:55:16;;;;;;;1.77;1.17;;;23.30;83.50;;;;;;5076607;28;20174;-5
2022/06/11 00:57:46;;;;;;;2.33;1.20;;;23.30;83.50;;;;;;5094840;28;20528;-6
2022/06/11 01:00:41;;;;;;;2.77;1.53;;;23.30;83.50;;;;;;5094045;28;20175;-6
2022/06/11 01:03:09;;;;;;;1.63;1.10;;;23.20;83.40;;;;;;5092724;28;20186;-6
2022/06/11 01:05:37;;;;;;;1.30;1.20;;;23.30;83.50;;;;;;5095576;28;20182;-7
2022/06/11 01:08:44;;;;;;;1.57;1.20;;;23.20;83.50;;;;;;5094330;28;20266;-4
2022/06/11 01:11:28;;;;;;;1.20;1.10;;;23.20;83.50;;;;;;5077583;28;20184;-6
2022/06/11 01:14:31;;;;;;;1.80;1.10;;;23.30;83.50;;;;;;5094002;28;20183;-4
2022/06/11 01:17:29;;;;;;;2.27;1.03;;;23.20;83.50;;;;;;5099190;28;20266;-6
2022/06/11 01:20:20;;;;;;;2.03;1.13;;;23.20;83.50;;;;;;5098680;28;20240;-6
2022/06/11 01:23:27;;;;;;;2.20;1.30;;;23.20;84.10;;;;;;5081422;28;20186;-4
2022/06/11 01:26:18;;;;;;;2.43;1.10;;;23.20;83.50;;;;;;5080511;28;20190;-5
2022/06/11 01:29:27;;;;;;;1.37;1.20;;;23.20;83.50;;;;;;5081166;28;20227;-6
2022/06/11 01:31:59;;;;;;;1.17;1.00;;;23.20;83.60;;;;;;5099710;28;20547;-5
2022/06/11 01:34:41;;;;;;;1.90;1.20;;;23.20;83.50;;;;;;5081732;28;20185;-6
2022/06/11 01:37:20;;;;;;;1.67;1.20;;;23.20;84.20;;;;;;5080822;28;20206;-6
2022/06/11 01:39:52;;;;;;;1.77;1.10;;;23.20;83.60;;;;;;5097641;28;20269;-5
2022/06/11 01:42:28;;;;;;;1.83;1.37;;;23.20;83.60;;;;;;5097237;28;20247;-6
2022/06/11 01:45:16;;;;;;;1.70;1.20;;;23.20;83.60;;;;;;5079783;28;20174;-5
2022/06/11 01:47:43;;;;;;;1.40;1.20;;;23.20;83.50;;;;;;5097795;28;20174;-5
2022/06/11 01:50:14;;;;;;;1.40;1.03;;;23.20;83.60;;;;;;5098057;28;20319;-6
2022/06/11 01:53:00;;;;;;;1.87;1.20;;;23.20;83.60;;;;;;5078204;28;20236;-6
2022/06/11 01:55:45;;;;;;;1.10;1.00;;;23.10;83.60;;;;;;5095370;28;20171;-5
2022/06/11 01:58:28;;;;;;;1.40;1.30;;;23.20;83.60;;;;;;5096471;28;20241;-6
2022/06/11 02:01:01;;;;;;;2.13;1.10;;;23.20;83.70;;;;;;5095033;28;20171;-6
2022/06/11 02:03:37;;;;;;;1.40;1.20;;;23.10;83.60;;;;;;5097101;28;20415;-4
2022/06/11 02:06:26;;;;;;;1.60;1.20;;;23.20;83.70;;;;;;5095859;28;20214;-6
2022/06/11 02:08:57;;;;;;;1.37;1.00;;;23.10;84.30;;;;;;5079214;28;20468;-7
2022/06/11 02:11:31;;;;;;;1.13;1.03;;;23.10;83.70;;;;;;5095813;28;20361;-6
2022/06/11 02:14:36;;;;;;;1.17;0.97;;;23.10;83.70;;;;;;5079684;28;20221;-5
2022/06/11 02:17:10;;;;;;;1.97;1.10;;;23.10;83.70;;;;;;5073338;28;20620;-5
2022/06/11 02:19:42;;;;;;;2.03;1.20;;;23.10;83.70;;;;;;5079750;28;20265;-6
2022/06/11 02:22:14;;;;;;;1.57;1.20;;;23.10;83.70;;;;;;5096124;28;20217;-5
2022/06/11 02:24:48;;;;;;;1.37;1.03;;;23.10;83.70;;;;;;5079094;28;20247;-6
2022/06/11 02:27:18;;;;;;;1.20;1.10;;;23.10;83.70;;;;;;5077581;28;20510;-6
2022/06/11 02:29:45;;;;;;;1.10;0.93;;;23.10;83.80;;;;;;5077502;28;20425;-6
2022/06/11 02:32:17;;;;;;;1.07;0.97;;;23.10;83.80;;;;;;5096479;28;20566;-5
2022/06/11 02:34:48;;;;;;;0.90;0.90;;;23.10;83.80;;;;;;5096756;28;20200;-6
2022/06/11 02:37:27;;;;;;;1.23;1.13;;;23.10;83.80;;;;;;5096274;28;20482;-6
2022/06/11 02:39:56;;;;;;;1.13;1.00;;;23.10;83.90;;;;;;5096287;28;20176;-5
2022/06/11 02:42:24;;;;;;;1.30;0.90;;;23.00;83.70;;;;;;5096398;28;20198;-6
2022/06/11 02:44:50;;;;;;;1.30;1.00;;;23.00;83.80;;;;;;5079026;28;20206;-5
2022/06/11 02:47:18;;;;;;;1.10;1.00;;;23.00;83.80;;;;;;5096678;28;20174;-6
2022/06/11 02:49:44;;;;;;;1.30;1.20;;;23.00;83.90;;;;;;5077769;28;20468;-7
2022/06/11 02:52:15;;;;;;;1.40;1.10;;;23.00;83.80;;;;;;5096303;28;20195;-6
2022/06/11 02:54:43;;;;;;;0.93;0.93;;;23.00;83.80;;;;;;5077554;28;20500;-5
2022/06/11 02:57:13;;;;;;;1.10;1.00;;;23.00;83.90;;;;;;5078152;28;20592;-6
2022/06/11 02:59:40;;;;;;;1.07;1.00;;;23.00;83.90;;;;;;5078039;28;20190;-6
2022/06/11 03:02:06;;;;;;;1.03;0.93;;;23.00;83.90;;;;;;5095725;28;20474;-6
2022/06/11 03:04:32;;;;;;;1.30;1.00;;;23.00;83.90;;;;;;5078580;28;20373;-6
2022/06/11 03:07:00;;;;;;;1.10;1.00;;;23.00;83.90;;;;;;5077544;28;20182;-6
2022/06/11 03:09:28;;;;;;;1.47;1.00;;;23.00;83.90;;;;;;5078445;28;20248;-6
2022/06/11 03:11:55;;;;;;;2.30;1.10;;;23.00;84.00;;;;;;5077446;28;20445;-5
2022/06/11 03:14:20;;;;;;;1.10;1.00;;;23.00;84.10;;;;;;5078008;28;20183;-6
2022/06/11 03:16:47;;;;;;;1.40;1.20;;;23.00;84.10;;;;;;5095666;28;20324;-5
2022/06/11 03:19:13;;;;;;;1.40;1.10;;;23.00;84.10;;;;;;5078509;28;20174;-5
2022/06/11 03:21:39;;;;;;;1.20;1.10;;;23.00;84.00;;;;;;5078172;28;20170;-6
2022/06/11 03:24:06;;;;;;;1.20;1.10;;;23.00;84.10;;;;;;5076592;28;20171;-6
2022/06/11 03:26:32;;;;;;;1.33;1.00;;;23.00;84.10;;;;;;5094895;28;20555;-5
2022/06/11 03:28:58;;;;;;;1.30;1.00;;;22.90;84.10;;;;;;5093782;28;20171;-5
2022/06/11 03:31:24;;;;;;;1.20;1.10;;;23.00;84.20;;;;;;5096024;28;20227;-6
2022/06/11 03:33:50;;;;;;;0.90;0.90;;;22.90;84.10;;;;;;5076803;28;20682;-6
2022/06/11 03:36:18;;;;;;;1.03;0.90;;;22.90;84.20;;;;;;5077282;28;20174;-6
2022/06/11 03:38:46;;;;;;;1.10;1.00;;;22.90;84.20;;;;;;5076464;28;20229;-5
2022/06/11 03:41:14;;;;;;;1.17;1.00;;;22.90;84.20;;;;;;5077059;28;20273;-6
2022/06/11 03:43:40;;;;;;;1.30;1.03;;;22.90;84.20;;;;;;5077634;28;20621;-6
2022/06/11 03:46:07;;;;;;;1.20;1.10;;;22.90;84.20;;;;;;5077474;28;20566;-5
2022/06/11 03:48:36;;;;;;;1.20;1.10;;;22.90;84.20;;;;;;5093979;28;20171;-5
2022/06/11 03:51:03;;;;;;;1.03;0.97;;;22.90;84.20;;;;;;5095166;28;20589;-6
2022/06/11 03:53:30;;;;;;;1.17;1.07;;;22.90;84.30;;;;;;5077344;28;20174;-4
2022/06/11 03:55:57;;;;;;;1.00;0.90;;;22.90;84.30;;;;;;5077361;28;20426;-6
2022/06/11 03:58:22;;;;;;;1.20;1.10;;;22.90;84.40;;;;;;5077425;28;20276;-5
2022/06/11 04:03:34;;;;;;;1.07;0.97;;;22.90;85.00;;;;;;5095720;28;20178;-6
2022/06/11 04:06:01;;;;;;;1.00;0.90;;;22.90;84.50;;;;;;5093890;28;20166;-6
2022/06/11 04:08:28;;;;;;;1.33;1.00;;;22.90;84.50;;;;;;5076233;28;20247;-5
2022/06/11 04:10:59;;;;;;;1.10;1.00;;;22.90;84.50;;;;;;5077415;28;20189;-6
2022/06/11 04:13:27;;;;;;;1.07;0.97;;;22.90;84.50;;;;;;5094128;28;20532;-5
2022/06/11 04:15:53;;;;;;;0.90;0.90;;;22.90;84.60;;;;;;5094008;28;20212;-6
2022/06/11 04:18:31;;;;;;;1.13;1.00;;;22.90;84.60;;;;;;5094389;28;20233;-6
2022/06/11 04:20:58;;;;;;;1.10;1.00;;;22.90;84.60;;;;;;5093466;28;20171;-6
2022/06/11 04:23:29;;;;;;;1.03;0.93;;;22.90;84.60;;;;;;5076710;28;20178;-5
2022/06/11 04:26:04;;;;;;;1.20;1.10;;;22.90;84.70;;;;;;5093766;28;20167;-6
2022/06/11 04:28:31;;;;;;;1.27;1.00;;;22.90;84.70;;;;;;5087278;28;20189;-5
2022/06/11 04:31:00;;;;;;;1.53;1.20;;;22.90;84.70;;;;;;5076980;28;20533;-6
2022/06/11 04:33:26;;;;;;;0.90;0.90;;;23.00;84.70;;;;;;5093664;28;20352;-5
2022/06/11 04:35:52;;;;;;;1.10;0.90;;;22.90;84.60;;;;;;5093424;28;20246;-6
2022/06/11 04:38:19;;;;;;;1.10;1.00;;;22.90;84.60;;;;;;5093948;28;20305;-5
2022/06/11 04:40:45;;;;;;;1.00;0.90;;;23.00;84.80;;;;;;5094673;28;20178;-6
2022/06/11 04:43:11;;;;;;;1.10;1.00;;;23.00;84.70;;;;;;5094897;28;20557;-5
2022/06/11 04:45:37;;;;;;;1.33;0.90;;;23.00;84.60;;;;;;5094108;28;20240;-5
2022/06/11 04:48:03;;;;;;;1.30;1.00;;;23.00;84.50;;;;;;5092584;28;20298;-6
2022/06/11 04:50:29;;;;;;;1.23;1.00;;;23.00;84.40;;;;;;5093491;28;20238;-4
2022/06/11 04:52:55;;;;;;;1.10;1.00;;;23.10;84.40;;;;;;5093601;28;20620;-7
2022/06/11 04:55:21;;;;;;;1.00;0.90;;;23.10;84.30;;;;;;5094362;28;20239;-5
2022/06/11 04:57:47;;;;;;;1.20;1.10;;;23.10;84.20;;;;;;5093354;28;20563;-6
2022/06/11 05:00:19;;;;;;;1.13;1.00;;;23.10;84.20;;;;;;5094672;28;20266;-4
2022/06/11 05:02:46;;;;;;;1.10;1.00;;;23.10;84.00;;;;;;5093347;28;20174;-6
2022/06/11 05:05:13;;;;;;;1.10;1.00;;;23.20;84.00;;;;;;5094111;28;20175;-6
2022/06/11 05:07:39;;;;;;;0.90;0.90;;;23.20;83.80;;;;;;5075276;28;20179;-5
2022/06/11 05:10:06;;;;;;;1.17;0.97;;;23.20;83.60;;;;;;5092518;28;20189;-4
2022/06/11 05:12:33;;;;;;;0.90;0.90;;;23.20;83.40;;;;;;5076532;28;20563;-5
2022/06/11 05:14:58;;;;;;;0.80;0.80;;;23.30;83.40;;;;;;5093832;28;20170;-5
2022/06/11 05:17:24;;;;;;;1.00;1.00;;;23.30;83.10;;;;;;5093324;28;20202;-5
2022/06/11 05:19:50;;;;;;;0.80;0.80;;;23.30;82.90;;;;;;5075178;28;20659;-6
2022/06/11 05:22:16;;;;;;;1.83;1.10;;;23.40;82.70;;;;;;5093055;28;20164;-5
2022/06/11 05:24:42;;;;;;;1.20;1.10;;;23.40;82.50;;;;;;5092926;28;20175;-5
2022/06/11 05:27:15;;;;;;;0.90;0.90;;;23.40;82.30;;;;;;5091011;28;20247;-5
2022/06/11 05:29:54;;;;;;;1.10;1.00;;;23.50;82.10;;;;;;5075164;28;20674;-7
2022/06/11 05:32:23;;;;;;;1.10;0.90;;;23.50;81.70;;;;;;5073577;28;20236;-6
2022/06/11 05:34:50;;;;;;;1.23;0.80;;;23.60;81.40;;;;;;5092896;28;20257;-4
2022/06/11 05:37:15;;;;;;;0.90;0.90;;;23.60;81.60;;;;;;5092795;28;20237;-5
2022/06/11 05:39:43;;;;;;;0.90;0.90;;;23.70;80.40;;;;;;5093213;28;20206;-5
2022/06/11 05:42:09;;;;;;;1.17;1.00;;;23.80;79.70;;;;;;5092533;28;20209;-5
2022/06/11 05:44:35;;;;;;;1.00;0.90;;;23.90;79.10;;;;;;5092875;28;20579;-5
2022/06/11 05:47:01;;;;;;;0.97;0.80;;;23.90;78.40;;;;;;5091981;28;20209;-5
2022/06/11 05:49:35;;;;;;;0.80;0.80;;;24.00;78.00;;;;;;5091529;28;20256;-6
2022/06/11 05:52:09;;;;;;;1.00;0.90;;;24.00;77.50;;;;;;5092182;28;20172;-5
2022/06/11 05:54:36;;;;;;;1.10;0.97;;;24.10;77.30;;;;;;5093004;28;20169;-6
2022/06/11 05:57:07;;;;;;;1.10;1.00;;;24.10;77.10;;;;;;5091629;28;20236;-5
2022/06/11 05:59:38;;;;;;;0.80;0.80;;;24.10;76.80;;;;;;5074362;28;20175;-5
2022/06/11 06:02:10;;;;;;;0.93;0.90;;;24.10;76.50;;;;;;5095064;28;20166;-6
2022/06/11 06:04:36;;;;;;;0.80;0.80;;;24.20;76.30;;;;;;5096195;28;20181;-6
2022/06/11 06:07:02;;;;;;;0.90;0.90;;;24.20;76.20;;;;;;5078183;28;20178;-6
2022/06/11 06:09:28;;;;;;;0.73;0.73;;;24.20;75.90;;;;;;5096239;28;20512;-6
2022/06/11 06:11:54;;;;;;;1.20;1.00;;;24.20;75.70;;;;;;5095697;28;20179;-6
2022/06/11 06:14:19;;;;;;;1.07;1.00;;;24.20;75.70;;;;;;5095322;28;20171;-6
2022/06/11 06:16:45;;;;;;;1.50;0.80;;;24.20;75.60;;;;;;5095191;28;20182;-5
2022/06/11 06:19:11;;;;;;;0.87;0.87;;;24.30;75.50;;;;;;5095777;28;20202;-6
2022/06/11 06:21:37;;;;;;;0.80;0.80;;;24.20;75.40;;;;;;5095350;28;20571;-5
2022/06/11 06:24:04;;;;;;;0.97;0.87;;;24.20;75.30;;;;;;5077500;28;20176;-7
2022/06/11 06:26:30;;;;;;;1.07;0.83;;;24.30;75.30;;;;;;5094712;28;20174;-5
2022/06/11 06:28:55;;;;;;;0.90;0.80;;;24.20;75.20;;;;;;5075994;28;20186;-5
2022/06/11 06:31:22;;;;;;;0.90;0.83;;;24.30;75.20;;;;;;5094847;28;20167;-5
2022/06/11 06:33:47;;;;;;;1.00;0.90;;;24.30;75.10;;;;;;5095118;28;20179;-6
2022/06/11 06:36:14;;;;;;;1.10;1.00;;;24.30;75.10;;;;;;5094477;28;20229;-5
2022/06/11 06:38:41;;;;;;;1.50;0.80;;;24.30;75.10;;;;;;5076643;28;20329;-6
2022/06/11 06:41:08;;;;;;;0.83;0.83;;;24.30;75.10;;;;;;5095114;28;20163;-5
2022/06/11 06:43:34;;;;;;;1.37;0.97;;;24.30;75.10;;;;;;5093902;28;20271;-6
2022/06/11 06:46:00;;;;;;;0.90;0.90;;;24.30;75.10;;;;;;5092904;28;20435;-5
2022/06/11 06:48:26;;;;;;;0.80;0.80;;;24.30;75.00;;;;;;5095130;28;20585;-6
2022/06/11 06:50:53;;;;;;;1.13;1.00;;;24.30;74.80;;;;;;5093744;28;20324;-6
2022/06/11 06:53:20;;;;;;;0.80;0.80;;;24.30;74.60;;;;;;5093367;28;20467;-6
2022/06/11 06:55:45;;;;;;;0.70;0.70;;;24.40;74.40;;;;;;5075664;28;20320;-6
2022/06/11 06:58:14;;;;;;;1.10;1.00;;;24.50;73.80;;;;;;5093462;28;20307;-6
2022/06/11 07:00:42;;;;;;;0.87;0.87;;;24.50;73.60;;;;;;5074483;28;20232;-6
2022/06/11 07:03:07;;;;;;;0.80;0.80;;;24.50;73.60;;;;;;5074860;28;20171;-6
2022/06/11 07:05:33;;;;;;;1.30;0.90;;;24.40;73.80;;;;;;5094351;28;20180;-5
2022/06/11 07:07:59;;;;;;;0.90;0.90;;;24.40;74.00;;;;;;5094144;28;20174;-6
2022/06/11 07:10:25;;;;;;;0.93;0.87;;;24.40;74.20;;;;;;5092376;28;20171;-6
2022/06/11 07:12:51;;;;;;;0.80;0.80;;;24.40;74.30;;;;;;5091691;28;20474;-6
2022/06/11 07:15:17;;;;;;;1.07;0.90;;;24.40;74.50;;;;;;5091903;28;20174;-6
2022/06/11 07:17:55;;;;;;;1.07;0.80;;;24.40;74.50;;;;;;5092283;28;20561;-6
2022/06/11 07:20:25;;;;;;;0.90;0.90;;;24.40;74.40;;;;;;5090594;28;20557;-6
2022/06/11 07:23:00;;;;;;;1.10;1.00;;;24.40;74.10;;;;;;5090901;28;20163;-6
2022/06/11 07:25:27;;;;;;;0.80;0.80;;;24.50;73.90;;;;;;5091545;28;20269;-5
2022/06/11 07:28:00;;;;;;;1.13;1.00;;;24.50;73.40;;;;;;5091703;28;20246;-6
2022/06/11 07:30:29;;;;;;;0.80;0.80;;;24.50;73.10;;;;;;5073211;28;20179;-6
2022/06/11 07:33:03;;;;;;;0.80;0.80;;;24.60;72.90;;;;;;5073964;28;20581;-6
2022/06/11 07:35:29;;;;;;;0.90;0.90;;;24.60;72.50;;;;;;5091918;28;20253;-6
2022/06/11 07:37:55;;;;;;;1.00;0.90;;;24.60;72.20;;;;;;5090639;28;20199;-6
2022/06/11 07:40:21;;;;;;;0.90;0.90;;;24.70;72.00;;;;;;5091992;28;20170;-5
2022/06/11 07:42:47;;;;;;;1.00;0.90;;;24.70;71.70;;;;;;5092422;28;20175;-6
2022/06/11 07:45:13;;;;;;;1.07;0.80;;;24.70;71.70;;;;;;5091275;28;20445;-6
2022/06/11 07:47:55;;;;;;;1.10;1.00;;;24.70;71.70;;;;;;5092413;28;20548;-6
2022/06/11 07:50:36;;;;;;;0.87;0.87;;;24.70;71.80;;;;;;5066799;28;20198;-6
2022/06/11 07:53:04;;;;;;;0.90;0.90;;;24.70;71.90;;;;;;5055793;28;20179;-6
2022/06/11 07:55:30;;;;;;;2.30;0.80;;;24.70;72.30;;;;;;5073004;28;20171;-5
2022/06/11 07:57:57;;;;;;;0.97;0.70;;;24.70;72.40;;;;;;5075829;28;20199;-7
2022/06/11 08:00:30;;;;;;;0.90;0.70;;;24.70;72.60;;;;;;5074347;28;20197;-7
2022/06/11 08:02:57;;;;;;;1.00;0.90;;;24.60;72.80;;;;;;5055341;28;20259;-5
2022/06/11 08:05:22;;;;;;;0.80;0.80;;;24.60;72.90;;;;;;5074920;28;20225;-6
2022/06/11 08:07:51;;;;;;;1.30;1.00;;;24.60;73.30;;;;;;5071459;28;20187;-7
2022/06/11 08:10:20;;;;;;;0.80;0.80;;;24.60;73.60;;;;;;5057634;28;20539;-7
2022/06/11 08:12:46;;;;;;;0.90;0.90;;;24.60;73.80;;;;;;5074331;28;20174;-6
2022/06/11 08:15:12;;;;;;;0.83;0.83;;;24.60;73.80;;;;;;5052779;28;20187;-6
2022/06/11 08:17:40;;;;;;;1.23;1.00;;;24.70;73.50;;;;;;5053609;28;20211;-6
2022/06/11 08:20:08;;;;;;;1.23;0.90;;;24.80;73.30;;;;;;5052137;28;20191;-6
2022/06/11 08:22:34;;;;;;;1.30;0.90;;;24.80;73.20;;;;;;5070503;28;20708;-6
2022/06/11 08:25:01;;;;;;;0.80;0.80;;;24.90;72.10;;;;;;5069698;28;20172;-5
2022/06/11 08:27:26;;;;;;;0.87;0.80;;;25.00;71.50;;;;;;5068071;28;20401;-6
2022/06/11 08:29:52;;;;;;;1.73;1.10;;;25.10;71.20;;;;;;5069431;28;20188;-5
2022/06/11 08:32:18;;;;;;;2.00;0.97;;;25.10;71.20;;;;;;5069795;28;20202;-4
2022/06/11 08:34:46;;;;;;;1.63;1.00;;;25.10;71.60;;;;;;5068587;28;20651;-6
2022/06/11 08:37:12;;;;;;;0.80;0.70;;;25.10;71.60;;;;;;5069370;28;20612;-6
2022/06/11 08:39:38;;;;;;;1.10;0.97;;;25.30;70.70;;;;;;5070023;28;20218;-6
2022/06/11 08:42:07;;;;;;;1.17;0.93;;;25.30;70.30;;;;;;5070391;28;20182;-6
2022/06/11 08:44:37;;;;;;;1.83;1.00;;;25.20;70.60;;;;;;5068852;28;20180;-7
2022/06/11 08:47:11;;;;;;;1.17;0.87;;;25.20;71.20;;;;;;5069448;28;20482;-5
2022/06/11 08:49:46;;;;;;;1.73;1.00;;;25.10;71.40;;;;;;5070007;28;20206;-6
2022/06/11 08:52:24;;;;;;;2.13;1.00;;;25.10;71.70;;;;;;5068337;28;20182;-7
2022/06/11 08:54:50;;;;;;;1.20;0.90;;;25.20;71.80;;;;;;5068590;28;20203;-7
2022/06/11 08:57:28;;;;;;;1.40;1.00;;;25.20;71.50;;;;;;5051257;28;20430;-6
2022/06/11 09:00:05;;;;;;;1.77;1.00;;;25.30;71.30;;;;;;5069857;28;20167;-5
2022/06/11 09:02:45;;;;;;;2.13;1.00;;;25.20;71.40;;;;;;5069693;28;20249;-6
2022/06/11 09:05:47;;;;;;;1.70;1.07;;;25.20;71.90;;;;;;5066936;28;20167;-6
2022/06/11 09:08:19;;;;;;;1.53;0.93;;;25.40;71.80;;;;;;5068637;28;20175;-6
2022/06/11 09:11:05;;;;;;;1.37;1.20;;;25.50;71.00;;;;;;5067548;28;20582;-6
2022/06/11 09:13:48;;;;;;;1.23;1.13;;;25.60;70.00;;;;;;5051525;28;20197;-7
2022/06/11 09:16:20;;;;;;;3.50;1.23;;;25.80;69.10;;;;;;5067130;28;20218;-7
2022/06/11 09:19:04;;;;;;;1.30;1.20;;;25.90;68.30;;;;;;5069327;28;20199;-6
2022/06/11 09:21:39;;;;;;;1.50;1.20;;;25.90;67.80;;;;;;5067097;28;20580;-6
2022/06/11 09:24:26;;;;;;;2.80;1.30;;;26.00;67.70;;;;;;5069268;28;20478;-6
2022/06/11 09:27:30;;;;;;;1.85;1.25;;;26.10;67.10;;;;;;5052941;28;20163;-7
2022/06/11 09:30:02;;;;;;;3.38;1.30;;;26.10;67.00;;;;;;5067931;28;20191;-6
2022/06/11 09:32:34;;;;;;;2.35;1.17;;;26.10;67.00;;;;;;5065845;28;20210;-6
2022/06/11 09:35:18;;;;;;;3.38;1.27;;;26.20;67.00;;;;;;5067871;28;20176;-5
2022/06/11 09:37:47;;;;;;;2.25;1.40;;;26.20;66.50;;;;;;5054223;28;20214;-6
2022/06/11 09:40:28;;;;;;;1.95;1.00;;;26.30;66.50;;;;;;5072199;28;20164;-6
2022/06/11 09:43:12;;;;;;;3.28;1.20;;;26.30;66.70;;;;;;5071653;28;20163;-6
2022/06/11 09:46:15;;;;;;;1.77;1.38;;;26.30;66.70;;;;;;5053657;28;20175;-4
2022/06/11 09:48:55;;;;;;;3.97;1.70;;;26.30;66.80;;;;;;5071664;28;20168;-6
2022/06/11 09:51:49;;;;;;;2.85;1.20;;;26.30;66.80;;;;;;5071442;28;20410;-7
2022/06/11 09:54:30;;;;;;;3.47;1.30;;;26.30;67.00;;;;;;5053554;28;20182;-5
2022/06/11 09:57:17;;;;;;;2.70;1.40;;;26.40;67.10;;;;;;5093686;28;20231;-7
2022/06/11 09:59:59;;;;;;;2.35;1.38;;;26.40;67.10;;;;;;5098030;28;20166;-5
2022/06/11 10:03:30;;;;;;;3.95;1.50;;;26.40;67.00;;;;;;5098229;28;20163;-6
2022/06/11 10:06:13;;;;;;;4.35;1.35;;;26.50;66.70;;;;;;5077902;28;20230;-7
2022/06/11 10:08:59;;;;;;;2.63;1.50;;;26.60;66.50;;;;;;5098466;28;20270;-6
2022/06/11 10:11:39;;;;;;;3.88;1.50;;;26.60;66.40;;;;;;5083274;28;20190;-8
2022/06/11 10:17:13;;;;;;;2.38;1.30;;;26.60;66.30;;;;;;5092872;28;20279;-5
2022/06/11 10:20:02;;;;;;;3.83;1.63;;;26.60;66.40;;;;;;5073064;28;20171;-5
2022/06/11 10:22:36;;;;;;;3.25;1.33;;;26.70;66.60;;;;;;5092443;28;20401;-5
2022/06/11 10:25:08;;;;;;;2.53;1.60;;;26.70;66.70;;;;;;5091876;28;20185;-7
2022/06/11 10:27:46;;;;;;;2.75;1.40;;;26.70;66.70;;;;;;5091852;28;20166;-7
2022/06/11 10:30:46;;;;;;;3.85;1.35;;;26.70;66.90;;;;;;5092363;28;20221;-6
2022/06/11 10:33:29;;;;;;;2.88;1.35;;;26.70;67.20;;;;;;5092149;28;20168;-5
2022/06/11 10:36:05;;;;;;;2.97;1.50;;;26.70;67.50;;;;;;5092453;28;20171;-6
2022/06/11 10:38:40;;;;;;;2.13;1.33;;;26.60;67.70;;;;;;5092615;28;20206;-7
2022/06/11 10:41:12;;;;;;;2.97;1.40;;;26.60;67.90;;;;;;5090731;28;20333;-6
2022/06/11 10:44:00;;;;;;;3.20;1.43;;;26.60;68.20;;;;;;5090519;28;20175;-7
2022/06/11 10:46:25;;;;;;;5.83;1.70;;;26.60;68.20;;;;;;5089288;28;20179;-7
2022/06/11 10:48:51;;;;;;;2.73;1.60;;;26.60;68.50;;;;;;5090370;28;20240;-6
2022/06/11 10:51:27;;;;;;;4.17;1.60;;;26.70;68.70;;;;;;5090445;28;20183;-6
2022/06/11 10:53:55;;;;;;;2.47;1.57;;;26.60;68.70;;;;;;5072608;28;20269;-5
2022/06/11 10:56:31;;;;;;;2.53;1.57;;;26.70;68.80;;;;;;5091241;28;20180;-6
2022/06/11 10:59:19;;;;;;;2.80;1.60;;;26.70;68.90;;;;;;5091127;28;20197;-6
2022/06/11 11:01:52;;;;;;;4.23;1.50;;;26.70;68.90;;;;;;5090605;28;20493;-5
2022/06/11 11:04:30;;;;;;;2.30;1.23;;;26.70;69.20;;;;;;5090516;28;20315;-7
2022/06/11 11:07:20;;;;;;;4.47;1.60;;;26.70;69.20;;;;;;5073610;28;20181;-5
2022/06/11 11:09:46;;;;;;;3.17;1.50;;;26.70;69.30;;;;;;5091370;28;20168;-6
2022/06/11 11:12:32;;;;;;;2.97;1.33;;;26.70;69.30;;;;;;5089450;28;20183;-6
2022/06/11 11:15:20;;;;;;;7.67;1.60;;;26.70;69.40;;;;;;5090812;28;20163;-6
2022/06/11 11:17:53;;;;;;;2.27;1.40;;;26.70;69.70;;;;;;5088638;28;20299;-6
2022/06/11 11:20:39;;;;;;;2.03;1.40;;;26.70;69.90;;;;;;5089553;28;20163;-6
2022/06/11 11:23:11;;;;;;;3.80;1.30;;;26.70;70.00;;;;;;5090403;28;20178;-7
2022/06/11 11:25:50;;;;;;;4.77;1.87;;;26.70;70.10;;;;;;5090455;28;20167;-6
2022/06/11 11:28:32;;;;;;;1.67;1.50;;;26.70;70.20;;;;;;5089222;28;20171;-5
2022/06/11 11:31:07;;;;;;;2.43;1.60;;;26.70;70.30;;;;;;5072506;28;20296;-6
2022/06/11 11:33:39;;;;;;;3.27;1.50;;;26.70;70.30;;;;;;5071165;28;20263;-6
2022/06/11 11:36:19;;;;;;;2.37;1.60;;;26.70;70.40;;;;;;5071038;28;20189;-6
2022/06/11 11:38:57;;;;;;;2.47;1.60;;;26.70;70.50;;;;;;5091416;28;20598;-7
2022/06/11 11:41:31;;;;;;;2.50;1.37;;;26.70;70.70;;;;;;5095972;28;20182;-7
2022/06/11 11:43:58;;;;;;;2.07;1.40;;;26.70;70.80;;;;;;5074987;28;20235;-5
2022/06/11 11:46:26;;;;;;;2.23;1.60;;;26.70;71.10;;;;;;5085490;28;20659;-6
2022/06/11 11:48:54;;;;;;;2.27;1.37;;;26.70;71.00;;;;;;5086257;28;20186;-6
2022/06/11 11:51:25;;;;;;;2.97;1.40;;;26.70;70.90;;;;;;5068525;28;20515;-6
2022/06/11 11:53:53;;;;;;;2.60;1.37;;;26.70;70.90;;;;;;5069004;28;20220;-6
2022/06/11 11:56:37;;;;;;;3.07;1.47;;;26.80;71.00;;;;;;5086345;28;20672;-7
2022/06/11 11:59:13;;;;;;;2.13;1.50;;;26.80;71.10;;;;;;5069273;28;20230;-6
2022/06/11 12:01:39;;;;;;;2.13;1.33;;;26.80;71.10;;;;;;5087383;28;20171;-6
2022/06/11 12:04:13;;;;;;;1.63;1.40;;;26.80;71.30;;;;;;5087142;28;20619;-7
2022/06/11 12:06:46;;;;;;;2.70;1.37;;;26.70;71.30;;;;;;5069005;28;20505;-7
2022/06/11 12:09:37;;;;;;;1.83;1.40;;;26.70;71.60;;;;;;5070230;28;20428;-8
2022/06/11 12:12:09;;;;;;;3.07;1.40;;;26.70;71.90;;;;;;5084876;28;20347;-5
2022/06/11 12:14:45;;;;;;;3.43;1.30;;;26.70;71.80;;;;;;5069326;28;20478;-7
2022/06/11 12:17:20;;;;;;;1.33;1.20;;;26.70;72.00;;;;;;5070551;28;20190;-7
2022/06/11 12:19:54;;;;;;;1.73;1.50;;;26.70;72.00;;;;;;5088603;28;20171;-6
2022/06/11 12:22:30;;;;;;;2.10;1.27;;;26.70;72.20;;;;;;5088123;28;20173;-7
2022/06/11 12:24:56;;;;;;;2.20;1.50;;;26.70;72.20;;;;;;5070860;28;20224;-5
2022/06/11 12:27:33;;;;;;;1.23;1.13;;;26.70;72.20;;;;;;5088694;28;20178;-6
2022/06/11 12:30:25;;;;;;;2.23;1.30;;;26.70;72.30;;;;;;5069913;28;20305;-7
2022/06/11 12:32:51;;;;;;;1.83;1.40;;;26.70;72.50;;;;;;5062564;28;20189;-6
2022/06/11 12:35:39;;;;;;;1.67;1.30;;;26.70;72.40;;;;;;5070241;28;20567;-7
2022/06/11 12:38:19;;;;;;;2.03;1.23;;;26.70;72.60;;;;;;5088192;28;20537;-6
2022/06/11 12:40:52;;;;;;;1.50;1.30;;;26.80;72.60;;;;;;5088690;28;20223;-6
2022/06/11 12:43:20;;;;;;;1.27;1.13;;;26.80;72.60;;;;;;5088944;28;20173;-7
2022/06/11 12:45:55;;;;;;;1.70;1.60;;;26.80;72.60;;;;;;5088864;28;20552;-7
2022/06/11 12:48:27;;;;;;;2.87;1.60;;;26.80;72.80;;;;;;5088116;28;20166;-8
2022/06/11 12:51:16;;;;;;;3.80;1.60;;;26.70;72.80;;;;;;5086665;28;20606;-6
2022/06/11 12:53:59;;;;;;;1.90;1.27;;;26.80;73.00;;;;;;5089134;28;20205;-7
2022/06/11 12:56:42;;;;;;;2.03;1.27;;;26.80;72.90;;;;;;5069082;28;20183;-6
2022/06/11 12:59:14;;;;;;;1.80;1.23;;;26.80;73.10;;;;;;5070308;28;20206;-5
2022/06/11 13:02:17;;;;;;;1.60;1.40;;;26.70;73.00;;;;;;5070768;28;20174;-6
2022/06/11 13:05:09;;;;;;;1.40;1.30;;;26.80;73.20;;;;;;5070186;28;20181;-6
2022/06/11 13:08:05;;;;;;;1.83;1.27;;;26.70;73.10;;;;;;5087301;28;20181;-6
2022/06/11 13:10:51;;;;;;;1.90;1.20;;;26.80;73.30;;;;;;5089744;28;20169;-7
2022/06/11 13:13:41;;;;;;;2.10;1.37;;;26.80;73.50;;;;;;5094604;28;20374;-7
2022/06/11 13:16:12;;;;;;;2.43;1.23;;;26.70;73.60;;;;;;5082162;28;20497;-7
2022/06/11 13:18:56;;;;;;;3.10;1.33;;;26.80;73.80;;;;;;5093863;28;20649;-5
2022/06/11 13:21:51;;;;;;;2.07;1.30;;;26.80;73.90;;;;;;5075079;28;20259;-7
2022/06/11 13:24:37;;;;;;;1.83;1.30;;;26.80;73.80;;;;;;5060855;28;20564;-6
2022/06/11 13:27:37;;;;;;;2.63;1.40;;;26.80;73.90;;;;;;5074819;28;20170;-6
2022/06/11 13:30:07;;;;;;;1.73;1.30;;;26.80;74.00;;;;;;5093650;28;20217;-6
2022/06/11 13:33:05;;;;;;;1.20;1.10;;;26.80;74.00;;;;;;5074504;28;20170;-6
2022/06/11 13:36:04;;;;;;;2.23;1.37;;;26.80;74.70;;;;;;5020073;28;20468;-6